Rolling Prairie, Indiana
Current Conditions -  °F | °C
As of 5:35 PM on Saturday 22 Nov 2014 (Local Time) from KPPO Reporting Station
Overcast Overcast  
Wind Chill: 51°   Ceiling: 2500
Heat Index: 51°   Visibility: 10mi
Dew Point: 48°   Wind: 12mph
Humidity: 89%   Direction: 220°SW
Pressure: 29.93"   Gusts: NA
Location:  41.67°N, 86.62°W
Report Text: KPPO 222335Z AUTO 22010KT 10SM OVC025 11/09 A2993 RMK AO2 T01070089
Loading
Personal Weather Stations






























Interactive Weather Map New forecast layout! Learn more

10-Day Weather Forecast

Advertisements
Track Severe Weather on mobile